createdAt,value
2019-05-09T00:00:07.703Z,990.29
2019-05-09T00:01:07.969Z,990.30
2019-05-09T00:02:08.201Z,990.29
2019-05-09T00:03:08.709Z,990.22
2019-05-09T00:04:09.000Z,990.19
2019-05-09T00:05:09.461Z,990.29
2019-05-09T00:06:09.691Z,990.31
2019-05-09T00:07:10.020Z,990.31
2019-05-09T00:08:10.258Z,990.25
2019-05-09T00:09:10.630Z,990.24
2019-05-09T00:10:11.156Z,990.24
2019-05-09T00:11:10.935Z,990.20
2019-05-09T00:12:11.325Z,990.30
2019-05-09T00:13:13.656Z,990.22
2019-05-09T00:14:13.568Z,990.23
2019-05-09T00:15:13.650Z,990.28
2019-05-09T00:16:14.525Z,990.24
2019-05-09T00:17:14.054Z,990.31
2019-05-09T00:18:14.220Z,990.27
2019-05-09T00:19:13.500Z,990.23
2019-05-09T00:20:13.675Z,990.22
2019-05-09T00:21:13.481Z,990.25
2019-05-09T00:22:13.965Z,990.14
2019-05-09T00:23:14.132Z,990.21
2019-05-09T00:24:14.384Z,990.18
2019-05-09T00:25:14.974Z,990.18
2019-05-09T00:26:14.929Z,990.31
2019-05-09T00:27:14.908Z,990.23
2019-05-09T00:28:15.313Z,990.23
2019-05-09T00:29:15.870Z,990.29
2019-05-09T00:30:16.029Z,990.27
2019-05-09T00:31:16.304Z,990.22
2019-05-09T00:32:16.924Z,990.34
2019-05-09T00:33:16.921Z,990.39
2019-05-09T00:34:16.854Z,990.37
2019-05-09T00:35:17.196Z,990.35
2019-05-09T00:36:17.201Z,990.36
2019-05-09T00:37:17.510Z,990.35
2019-05-09T00:38:17.763Z,990.39
2019-05-09T00:39:17.918Z,990.39
2019-05-09T00:40:18.202Z,990.33
2019-05-09T00:41:18.578Z,990.46
2019-05-09T00:42:18.813Z,990.33
2019-05-09T00:43:19.304Z,990.25
2019-05-09T00:45:19.551Z,990.32
2019-05-09T00:46:20.007Z,990.21
2019-05-09T00:47:20.053Z,990.24
2019-05-09T00:48:20.436Z,990.16
2019-05-09T00:49:20.735Z,990.18
2019-05-09T00:50:21.006Z,990.21
2019-05-09T00:51:23.304Z,990.15
2019-05-09T00:52:23.383Z,990.09
2019-05-09T00:53:23.263Z,990.09
2019-05-09T00:54:23.904Z,990.06
2019-05-09T00:55:23.880Z,990.12
2019-05-09T00:56:24.008Z,990.10
2019-05-09T00:57:23.050Z,990.08
2019-05-09T00:58:24.141Z,990.14
2019-05-09T00:59:24.116Z,990.07
2019-05-09T01:00:24.229Z,990.11
2019-05-09T01:01:24.192Z,990.16
2019-05-09T01:02:23.841Z,990.03
2019-05-09T01:03:24.159Z,990.00
2019-05-09T01:04:24.467Z,990.03
2019-05-09T01:05:24.545Z,990.08
2019-05-09T01:06:24.798Z,990.04
2019-05-09T01:07:25.174Z,990.08
2019-05-09T01:08:25.496Z,990.04
2019-05-09T01:09:25.988Z,990.11
2019-05-09T01:10:26.234Z,990.08
2019-05-09T01:11:26.534Z,990.06
2019-05-09T01:12:27.066Z,990.05
2019-05-09T01:13:26.823Z,990.05
2019-05-09T01:14:27.073Z,990.06
2019-05-09T01:15:27.387Z,990.00
2019-05-09T01:16:27.954Z,989.97
2019-05-09T01:17:28.010Z,990.03
2019-05-09T01:18:27.759Z,989.95
2019-05-09T01:19:27.997Z,989.99
2019-05-09T01:20:28.288Z,990.06
2019-05-09T01:21:28.542Z,989.99
2019-05-09T01:22:28.941Z,989.97
2019-05-09T01:23:29.187Z,989.97
2019-05-09T01:24:29.777Z,990.02
2019-05-09T01:26:30.060Z,989.92
2019-05-09T01:27:30.307Z,990.02
2019-05-09T01:28:30.551Z,990.00
2019-05-09T01:29:30.843Z,989.98
2019-05-09T01:30:33.430Z,990.04
2019-05-09T01:31:33.276Z,990.02
2019-05-09T01:32:34.166Z,990.00
2019-05-09T01:33:33.298Z,989.90
2019-05-09T01:34:33.183Z,990.02
2019-05-09T01:35:34.012Z,989.91
2019-05-09T01:36:33.894Z,989.92
2019-05-09T01:37:34.192Z,989.94
2019-05-09T01:38:34.107Z,989.89
2019-05-09T01:39:33.836Z,989.97
2019-05-09T01:40:34.113Z,989.94
2019-05-09T01:41:34.509Z,989.85
2019-05-09T01:42:34.769Z,989.93
2019-05-09T01:43:34.806Z,989.92
2019-05-09T01:44:35.070Z,989.85
2019-05-09T01:45:35.441Z,989.89
2019-05-09T01:46:35.677Z,989.88
2019-05-09T01:47:35.902Z,989.84
2019-05-09T01:48:36.147Z,989.98
2019-05-09T01:49:36.424Z,989.99
2019-05-09T01:50:36.956Z,989.84
2019-05-09T01:51:36.691Z,989.92
2019-05-09T01:52:37.037Z,989.88
2019-05-09T01:53:37.337Z,989.94
2019-05-09T01:54:37.958Z,989.92
2019-05-09T01:55:38.193Z,989.86
2019-05-09T01:56:38.799Z,989.86
2019-05-09T01:57:39.211Z,989.89
2019-05-09T01:58:39.455Z,989.80
2019-05-09T01:59:39.702Z,989.95
2019-05-09T02:00:39.933Z,989.96
2019-05-09T02:01:40.159Z,989.95
2019-05-09T02:02:40.406Z,989.87
2019-05-09T02:03:40.641Z,989.94
2019-05-09T02:04:40.866Z,989.96
2019-05-09T02:05:43.441Z,989.89
2019-05-09T02:06:43.875Z,989.96
2019-05-09T02:07:43.815Z,989.98
2019-05-09T02:08:43.843Z,990.01
2019-05-09T02:09:43.425Z,990.00
2019-05-09T02:10:44.149Z,989.94
2019-05-09T02:11:45.546Z,989.99
2019-05-09T02:12:43.204Z,989.92
2019-05-09T02:13:44.212Z,989.91
2019-05-09T02:14:43.883Z,989.97
2019-05-09T02:15:43.765Z,989.91
2019-05-09T02:16:43.801Z,989.92
2019-05-09T02:17:55.796Z,989.94
2019-05-09T02:18:44.315Z,989.97
2019-05-09T02:19:44.558Z,989.99
2019-05-09T02:20:45.095Z,989.97
2019-05-09T02:21:45.390Z,990.01
2019-05-09T02:22:45.608Z,989.93
2019-05-09T02:23:45.945Z,990.01
2019-05-09T02:24:46.383Z,989.96
2019-05-09T02:25:46.832Z,989.96
2019-05-09T02:26:47.056Z,989.88
2019-05-09T02:27:47.279Z,990.03
2019-05-09T02:28:47.614Z,989.96
2019-05-09T02:29:47.950Z,989.97
2019-05-09T02:30:48.208Z,989.92
2019-05-09T02:31:48.468Z,989.99
2019-05-09T02:32:48.735Z,989.98
2019-05-09T02:33:48.959Z,989.97
2019-05-09T02:34:49.476Z,989.90
2019-05-09T02:35:56.709Z,990.02
2019-05-09T02:36:50.188Z,990.00
2019-05-09T02:38:50.698Z,990.00
2019-05-09T02:39:50.957Z,989.95
2019-05-09T02:40:51.183Z,990.01
2019-05-09T02:42:04.395Z,989.95
2019-05-09T02:42:51.764Z,990.02
2019-05-09T02:43:52.365Z,990.00
2019-05-09T02:44:52.845Z,990.03
2019-05-09T02:45:53.077Z,989.99
2019-05-09T02:46:53.700Z,990.07
2019-05-09T02:47:54.047Z,989.99
2019-05-09T02:48:54.282Z,990.06
2019-05-09T02:49:54.719Z,990.04
2019-05-09T02:50:54.958Z,990.06
2019-05-09T02:51:55.208Z,990.05
2019-05-09T02:52:58.863Z,990.18
2019-05-09T02:53:58.453Z,990.12
2019-05-09T02:54:58.350Z,990.03
2019-05-09T02:55:58.504Z,990.03
2019-05-09T02:56:58.013Z,990.06
2019-05-09T02:57:59.223Z,990.09
2019-05-09T02:58:58.870Z,990.10
2019-05-09T02:59:59.261Z,990.14
2019-05-09T03:00:59.713Z,990.17
2019-05-09T03:01:58.580Z,990.16
2019-05-09T03:02:59.608Z,990.10
2019-05-09T03:03:58.867Z,990.18
2019-05-09T03:04:58.375Z,990.16
2019-05-09T03:05:59.748Z,990.21
2019-05-09T03:06:59.659Z,990.11
2019-05-09T03:07:58.705Z,990.16
2019-05-09T03:08:59.561Z,990.15
2019-05-09T03:09:58.991Z,990.20
2019-05-09T03:10:59.387Z,990.17
2019-05-09T03:12:20.537Z,990.17
2019-05-09T03:13:00.252Z,990.16
2019-05-09T03:14:00.625Z,990.19
2019-05-09T03:15:00.961Z,990.20
2019-05-09T03:16:00.869Z,990.24
2019-05-09T03:17:01.271Z,990.27
2019-05-09T03:18:01.865Z,990.18
2019-05-09T03:19:01.803Z,990.18
2019-05-09T03:20:02.393Z,990.22
2019-05-09T03:21:02.453Z,990.22
2019-05-09T03:22:02.335Z,990.24
2019-05-09T03:23:02.630Z,990.22
2019-05-09T03:24:03.232Z,990.19
2019-05-09T03:25:03.297Z,990.20
2019-05-09T03:26:03.345Z,990.19
2019-05-09T03:27:03.161Z,990.23
2019-05-09T03:28:03.758Z,990.21
2019-05-09T03:29:04.017Z,990.15
2019-05-09T03:30:04.285Z,990.27
2019-05-09T03:31:04.150Z,990.15
2019-05-09T03:32:04.708Z,990.13
2019-05-09T03:34:04.465Z,990.11
2019-05-09T03:35:04.987Z,990.11
2019-05-09T03:36:05.276Z,990.14
2019-05-09T03:37:05.696Z,990.10
2019-05-09T03:38:08.277Z,990.15
2019-05-09T03:39:08.219Z,990.18
2019-05-09T03:40:07.871Z,990.19
2019-05-09T03:41:08.549Z,990.16
2019-05-09T03:42:07.851Z,990.20
2019-05-09T03:43:08.138Z,990.20
2019-05-09T03:44:07.754Z,990.20
2019-05-09T03:45:08.346Z,990.16
2019-05-09T03:46:08.258Z,990.19
2019-05-09T03:47:08.586Z,990.14
2019-05-09T03:48:08.865Z,990.17
2019-05-09T03:49:09.249Z,990.22
2019-05-09T03:50:09.676Z,990.19
2019-05-09T03:51:09.913Z,990.08
2019-05-09T03:52:10.874Z,990.23
2019-05-09T03:53:10.605Z,990.20
2019-05-09T03:54:10.928Z,990.19
2019-05-09T03:55:11.167Z,990.17
2019-05-09T03:56:11.877Z,990.19
2019-05-09T03:57:11.849Z,990.24
2019-05-09T03:58:12.530Z,990.25
2019-05-09T03:59:12.548Z,990.26
2019-05-09T04:00:12.818Z,990.21
2019-05-09T04:01:13.059Z,990.22
2019-05-09T04:02:13.309Z,990.20
2019-05-09T04:03:13.692Z,990.24
2019-05-09T04:04:13.961Z,990.22
2019-05-09T04:05:14.570Z,990.22
2019-05-09T04:06:14.342Z,990.19
2019-05-09T04:07:14.614Z,990.18
2019-05-09T04:08:15.174Z,990.12
2019-05-09T04:09:15.007Z,990.17
2019-05-09T04:10:17.904Z,990.11
2019-05-09T04:11:15.529Z,990.19
2019-05-09T04:12:17.963Z,990.11
2019-05-09T04:13:18.029Z,990.13
2019-05-09T04:14:17.525Z,990.18
2019-05-09T04:15:18.863Z,990.20
2019-05-09T04:16:17.319Z,990.14
2019-05-09T04:17:18.096Z,990.13
2019-05-09T04:18:17.672Z,990.12
2019-05-09T04:19:17.566Z,990.11
2019-05-09T04:20:17.729Z,990.21
2019-05-09T04:21:17.651Z,990.15
2019-05-09T04:22:18.310Z,990.14
2019-05-09T04:23:18.593Z,990.09
2019-05-09T04:24:18.131Z,990.11
2019-05-09T04:25:19.446Z,990.13
2019-05-09T04:26:18.632Z,990.15
2019-05-09T04:27:19.032Z,990.17
2019-05-09T04:28:19.078Z,990.18
2019-05-09T04:29:19.319Z,990.16
2019-05-09T04:30:19.631Z,990.16
2019-05-09T04:31:19.637Z,990.14
2019-05-09T04:32:20.030Z,990.10
2019-05-09T04:33:20.332Z,990.12
2019-05-09T04:34:20.553Z,990.12
2019-05-09T04:35:20.813Z,990.10
2019-05-09T04:36:21.064Z,990.02
2019-05-09T04:37:21.590Z,990.11
2019-05-09T04:38:21.936Z,990.02
2019-05-09T04:39:23.769Z,990.05
2019-05-09T04:40:22.385Z,990.03
2019-05-09T04:41:23.852Z,990.00
2019-05-09T04:42:23.303Z,990.04
2019-05-09T04:43:27.314Z,990.02
2019-05-09T04:44:23.979Z,989.97
2019-05-09T04:45:23.962Z,989.92
2019-05-09T04:46:24.532Z,989.97
2019-05-09T04:47:24.467Z,989.99
2019-05-09T04:48:24.776Z,990.03
2019-05-09T04:49:24.930Z,989.93
2019-05-09T04:50:25.212Z,990.00
2019-05-09T04:51:25.682Z,989.94
2019-05-09T04:52:27.836Z,990.01
2019-05-09T04:53:26.184Z,989.99
2019-05-09T04:54:27.997Z,990.03
2019-05-09T04:55:27.335Z,990.12
2019-05-09T04:56:27.907Z,990.01
2019-05-09T04:57:27.866Z,990.08
2019-05-09T04:58:27.485Z,990.07
2019-05-09T04:59:28.513Z,990.04
2019-05-09T05:00:28.258Z,990.05
2019-05-09T05:01:28.338Z,990.08
2019-05-09T05:02:28.573Z,989.99
2019-05-09T05:03:28.861Z,990.12
2019-05-09T05:04:29.140Z,989.99
2019-05-09T05:05:29.530Z,990.08
2019-05-09T05:06:29.801Z,990.06
2019-05-09T05:07:30.199Z,990.06
2019-05-09T05:08:30.662Z,990.12
2019-05-09T05:09:31.149Z,990.12
2019-05-09T05:10:31.032Z,990.11
2019-05-09T05:11:31.273Z,990.11
2019-05-09T05:12:31.561Z,990.11
2019-05-09T05:13:31.815Z,990.20
2019-05-09T05:14:32.304Z,990.15
2019-05-09T05:15:32.881Z,990.15
2019-05-09T05:16:32.915Z,990.23
2019-05-09T05:17:32.873Z,990.22
2019-05-09T05:18:33.369Z,990.16
2019-05-09T05:19:36.200Z,990.20
2019-05-09T05:20:33.984Z,990.22
2019-05-09T05:21:34.230Z,990.21
2019-05-09T05:22:34.642Z,990.20
2019-05-09T05:23:34.871Z,990.22
2019-05-09T05:24:35.349Z,990.29
2019-05-09T05:25:38.137Z,990.27
2019-05-09T05:26:37.996Z,990.25
2019-05-09T05:27:38.192Z,990.25
2019-05-09T05:28:38.199Z,990.24
2019-05-09T05:29:38.344Z,990.22
2019-05-09T05:30:37.458Z,990.23
2019-05-09T05:31:38.830Z,990.21
2019-05-09T05:32:38.599Z,990.23
2019-05-09T05:33:38.433Z,990.22
2019-05-09T05:34:38.864Z,990.27
2019-05-09T05:35:38.787Z,990.26
2019-05-09T05:36:39.224Z,990.22
2019-05-09T05:37:39.219Z,990.24
2019-05-09T05:38:39.593Z,990.21
2019-05-09T05:39:39.839Z,990.22
2019-05-09T05:40:44.852Z,990.25
2019-05-09T05:41:40.338Z,990.25
2019-05-09T05:42:40.760Z,990.21
2019-05-09T05:43:44.556Z,990.25
2019-05-09T05:44:41.243Z,990.22
2019-05-09T05:45:41.511Z,990.25
2019-05-09T05:46:41.557Z,990.18
2019-05-09T05:47:41.951Z,990.24
2019-05-09T05:48:42.191Z,990.23
2019-05-09T05:49:42.768Z,990.21
2019-05-09T05:50:43.128Z,990.13
2019-05-09T05:51:43.630Z,990.15
2019-05-09T05:52:43.796Z,990.13
2019-05-09T05:53:43.831Z,990.17
2019-05-09T05:54:44.289Z,990.19
2019-05-09T05:55:44.782Z,990.20
2019-05-09T05:56:47.386Z,990.19
2019-05-09T05:57:47.692Z,990.16
2019-05-09T05:58:45.763Z,990.12
2019-05-09T05:59:48.153Z,990.20
2019-05-09T06:00:48.096Z,990.15
2019-05-09T06:01:47.709Z,990.16
2019-05-09T06:02:47.857Z,990.17
2019-05-09T06:03:48.113Z,990.17
2019-05-09T06:04:48.640Z,990.21
2019-05-09T06:05:51.509Z,990.21
2019-05-09T06:06:48.362Z,990.21
2019-05-09T06:07:48.507Z,990.24
2019-05-09T06:08:48.735Z,990.18
2019-05-09T06:09:49.052Z,990.18
2019-05-09T06:10:49.278Z,990.13
2019-05-09T06:11:49.700Z,990.14
2019-05-09T06:12:49.949Z,990.09
2019-05-09T06:13:56.609Z,990.14
2019-05-09T06:14:50.200Z,990.16
2019-05-09T06:15:50.434Z,990.10
2019-05-09T06:16:50.684Z,990.22
2019-05-09T06:17:51.003Z,990.15
2019-05-09T06:18:51.400Z,990.12
2019-05-09T06:19:51.903Z,990.17
2019-05-09T06:20:52.201Z,990.21
2019-05-09T06:21:52.659Z,990.16
2019-05-09T06:22:52.816Z,990.09
2019-05-09T06:23:53.104Z,990.15
2019-05-09T06:24:53.412Z,990.18
2019-05-09T06:25:53.909Z,990.14
2019-05-09T06:26:54.133Z,990.18
2019-05-09T06:27:54.522Z,990.15
2019-05-09T06:28:54.877Z,990.14
2019-05-09T06:29:55.125Z,990.13
2019-05-09T06:30:55.369Z,990.15
2019-05-09T06:31:55.745Z,990.10
2019-05-09T06:32:58.023Z,990.16
2019-05-09T06:33:57.763Z,990.09
2019-05-09T06:34:57.878Z,990.12
2019-05-09T06:35:58.952Z,990.13
2019-05-09T06:36:58.491Z,990.15
2019-05-09T06:37:58.791Z,990.22
2019-05-09T06:38:58.756Z,990.17
2019-05-09T06:39:58.380Z,990.24
2019-05-09T06:40:58.351Z,990.19
2019-05-09T06:41:58.446Z,990.21
2019-05-09T06:43:00.030Z,990.27
2019-05-09T06:44:13.256Z,990.16
2019-05-09T06:44:59.290Z,990.31
2019-05-09T06:45:59.663Z,990.18
2019-05-09T06:46:59.740Z,990.19
2019-05-09T06:48:00.469Z,990.24
2019-05-09T06:49:20.084Z,990.21
2019-05-09T06:50:00.271Z,990.15
2019-05-09T06:51:00.835Z,990.24
2019-05-09T06:52:01.125Z,990.28
2019-05-09T06:53:01.552Z,990.19
2019-05-09T06:54:02.025Z,990.25
2019-05-09T06:55:02.538Z,990.23
2019-05-09T06:56:02.553Z,990.22
2019-05-09T06:57:03.132Z,990.25
2019-05-09T06:58:03.175Z,990.24
2019-05-09T06:59:03.101Z,990.24
2019-05-09T07:00:03.700Z,990.25
2019-05-09T07:01:04.089Z,990.27
2019-05-09T07:02:03.925Z,990.26
2019-05-09T07:03:04.522Z,990.21
2019-05-09T07:04:04.700Z,990.22
2019-05-09T07:05:04.652Z,990.26
2019-05-09T07:06:04.881Z,990.18
2019-05-09T07:07:07.774Z,990.19
2019-05-09T07:08:05.067Z,990.22
2019-05-09T07:09:05.260Z,990.22
2019-05-09T07:10:07.458Z,990.24
2019-05-09T07:11:07.591Z,990.24
2019-05-09T07:12:07.913Z,990.16
2019-05-09T07:13:07.910Z,990.25
2019-05-09T07:14:08.391Z,990.28
2019-05-09T07:15:08.804Z,990.30
2019-05-09T07:16:08.925Z,990.24
2019-05-09T07:17:08.477Z,990.30
2019-05-09T07:18:08.256Z,990.22
2019-05-09T07:19:08.171Z,990.22
2019-05-09T07:20:08.729Z,990.25
2019-05-09T07:21:08.633Z,990.30
2019-05-09T07:22:09.354Z,990.24
2019-05-09T07:23:09.217Z,990.26
2019-05-09T07:24:09.125Z,990.26
2019-05-09T07:25:11.038Z,990.25
2019-05-09T07:26:09.566Z,990.28
2019-05-09T07:27:09.782Z,990.20
2019-05-09T07:28:09.549Z,990.29
2019-05-09T07:29:09.879Z,990.20
2019-05-09T07:30:10.128Z,990.24
2019-05-09T07:31:11.798Z,990.24
2019-05-09T07:32:10.905Z,990.20
2019-05-09T07:33:10.973Z,990.34
2019-05-09T07:34:11.439Z,990.18
2019-05-09T07:35:11.801Z,990.20
2019-05-09T07:36:12.034Z,990.21
2019-05-09T07:37:12.288Z,990.14
2019-05-09T07:38:12.551Z,990.17
2019-05-09T07:39:12.799Z,990.22
2019-05-09T07:40:13.353Z,990.19
2019-05-09T07:42:13.139Z,990.17
2019-05-09T07:43:13.390Z,990.25
2019-05-09T07:44:13.618Z,990.21
2019-05-09T07:45:14.168Z,990.13
2019-05-09T07:46:13.930Z,990.19
2019-05-09T07:47:13.981Z,990.23
2019-05-09T07:48:14.221Z,990.19
2019-05-09T07:49:14.557Z,990.20
2019-05-09T07:50:15.096Z,990.24
2019-05-09T07:51:15.003Z,990.16
2019-05-09T07:53:17.574Z,990.18
2019-05-09T07:54:22.084Z,990.19
2019-05-09T07:55:18.001Z,990.16
2019-05-09T07:56:18.499Z,990.13
2019-05-09T07:57:18.126Z,990.09
2019-05-09T07:58:18.735Z,989.98
2019-05-09T07:59:18.107Z,989.93
2019-05-09T08:00:18.367Z,989.95
2019-05-09T08:01:18.827Z,989.94
2019-05-09T08:02:17.658Z,989.95
2019-05-09T08:03:18.119Z,989.90
2019-05-09T08:04:18.219Z,989.91
2019-05-09T08:05:17.760Z,989.89
2019-05-09T08:06:18.550Z,989.85
2019-05-09T08:07:18.716Z,989.90
2019-05-09T08:08:18.988Z,989.87
2019-05-09T08:09:19.328Z,989.78
2019-05-09T08:10:19.767Z,989.86
2019-05-09T08:11:20.000Z,989.82
2019-05-09T08:12:20.246Z,989.85
2019-05-09T08:13:21.495Z,989.81
2019-05-09T08:14:20.892Z,989.79
2019-05-09T08:15:21.297Z,989.80
2019-05-09T08:16:21.802Z,989.83
2019-05-09T08:17:21.567Z,989.77
2019-05-09T08:18:21.795Z,989.80
2019-05-09T08:19:22.051Z,989.85
2019-05-09T08:20:22.324Z,989.81
2019-05-09T08:21:22.730Z,989.80
2019-05-09T08:22:25.927Z,989.80
2019-05-09T08:23:23.213Z,989.79
2019-05-09T08:24:23.451Z,989.82
2019-05-09T08:25:23.937Z,989.78
2019-05-09T08:26:24.205Z,989.72
2019-05-09T08:27:24.201Z,989.73
2019-05-09T08:28:24.442Z,989.75
2019-05-09T08:29:24.887Z,989.75
2019-05-09T08:30:24.977Z,989.76
2019-05-09T08:31:24.957Z,989.74
2019-05-09T08:32:24.749Z,989.83
2019-05-09T08:33:24.993Z,989.85
2019-05-09T08:34:25.364Z,989.86
2019-05-09T08:35:27.917Z,989.93
2019-05-09T08:36:28.231Z,989.94
2019-05-09T08:37:28.079Z,989.89
2019-05-09T08:38:28.238Z,989.82
2019-05-09T08:39:27.678Z,989.83
2019-05-09T08:40:28.367Z,989.83
2019-05-09T08:41:28.963Z,989.86
2019-05-09T08:42:29.364Z,989.84
2019-05-09T08:43:28.349Z,989.82
2019-05-09T08:44:31.095Z,989.82
2019-05-09T08:45:31.338Z,989.82
2019-05-09T08:46:28.975Z,989.89
2019-05-09T08:47:28.731Z,989.76
2019-05-09T08:48:29.225Z,989.76
2019-05-09T08:49:29.454Z,989.81
2019-05-09T08:50:29.504Z,989.87
2019-05-09T08:51:36.773Z,989.91
2019-05-09T08:52:29.779Z,989.83
2019-05-09T08:53:30.011Z,989.83
2019-05-09T08:54:30.235Z,989.76
2019-05-09T08:55:30.958Z,989.91
2019-05-09T08:56:31.209Z,989.96
2019-05-09T08:57:31.588Z,989.88
2019-05-09T08:58:31.820Z,989.96
2019-05-09T08:59:32.060Z,989.88
2019-05-09T09:00:32.309Z,989.95
2019-05-09T09:01:49.909Z,989.90
2019-05-09T09:02:33.083Z,989.89
2019-05-09T09:04:33.397Z,989.90
2019-05-09T09:05:33.624Z,989.87
2019-05-09T09:06:33.966Z,989.86
2019-05-09T09:07:34.189Z,989.85
2019-05-09T09:08:34.689Z,989.83
2019-05-09T09:09:34.503Z,989.87
2019-05-09T09:10:35.043Z,989.91
2019-05-09T09:11:35.013Z,989.90
2019-05-09T09:12:35.311Z,989.80
2019-05-09T09:13:37.816Z,989.75
2019-05-09T09:14:35.719Z,989.90
2019-05-09T09:16:02.950Z,989.78
2019-05-09T09:16:37.915Z,989.75
2019-05-09T09:17:38.583Z,989.82
2019-05-09T09:18:38.830Z,989.77
2019-05-09T09:19:38.557Z,989.82
2019-05-09T09:20:38.307Z,989.81
2019-05-09T09:21:38.791Z,989.80
2019-05-09T09:22:37.829Z,989.82
2019-05-09T09:23:44.071Z,989.80
2019-05-09T09:24:38.310Z,989.78
2019-05-09T09:25:39.103Z,989.76
2019-05-09T09:26:38.971Z,989.84
2019-05-09T09:27:39.417Z,989.76
2019-05-09T09:28:39.884Z,989.73
2019-05-09T09:29:40.346Z,989.73
2019-05-09T09:30:40.583Z,989.73
2019-05-09T09:31:40.820Z,989.73
2019-05-09T09:32:41.112Z,989.78
2019-05-09T09:33:41.352Z,989.79
2019-05-09T09:34:41.771Z,989.71
2019-05-09T09:35:42.034Z,989.79
2019-05-09T09:36:42.504Z,989.70
2019-05-09T09:38:42.761Z,989.73
2019-05-09T09:39:44.855Z,989.68
2019-05-09T09:40:43.265Z,989.70
2019-05-09T09:41:43.560Z,989.66
2019-05-09T09:42:43.802Z,989.70
2019-05-09T09:43:44.231Z,989.70
2019-05-09T09:44:44.255Z,989.66
2019-05-09T09:45:44.352Z,989.68
2019-05-09T09:46:44.814Z,989.65
2019-05-09T09:47:44.786Z,989.69
2019-05-09T09:48:45.025Z,989.65
2019-05-09T09:49:45.345Z,989.59
2019-05-09T09:50:50.628Z,989.63
2019-05-09T09:51:45.804Z,989.61
2019-05-09T09:52:48.896Z,989.60
2019-05-09T09:53:48.873Z,989.59
2019-05-09T09:54:48.084Z,989.57
2019-05-09T09:55:47.820Z,989.68
2019-05-09T09:56:47.948Z,989.58
2019-05-09T09:57:48.466Z,989.59
2019-05-09T09:58:48.387Z,989.56
2019-05-09T09:59:48.601Z,989.63
2019-05-09T10:00:48.569Z,989.57
2019-05-09T10:01:49.023Z,989.57
2019-05-09T10:02:49.364Z,989.55
2019-05-09T10:03:49.789Z,989.56
2019-05-09T10:04:49.832Z,989.58
2019-05-09T10:05:50.129Z,989.53
2019-05-09T10:07:50.434Z,989.52
2019-05-09T10:08:50.911Z,989.56
2019-05-09T10:09:51.167Z,989.52
2019-05-09T10:10:51.893Z,989.51
2019-05-09T10:11:52.343Z,989.46
2019-05-09T10:12:52.823Z,989.51
2019-05-09T10:13:52.960Z,989.49
2019-05-09T10:14:53.334Z,989.46
2019-05-09T10:15:53.268Z,989.40
2019-05-09T10:16:53.308Z,989.45
2019-05-09T10:17:53.747Z,989.52
2019-05-09T10:18:53.870Z,989.55
2019-05-09T10:19:54.481Z,989.42
2019-05-09T10:20:54.338Z,989.45
2019-05-09T10:21:54.577Z,989.35
2019-05-09T10:23:00.804Z,989.42
2019-05-09T10:23:54.765Z,989.44
2019-05-09T10:24:55.022Z,989.41
2019-05-09T10:25:57.942Z,989.41
2019-05-09T10:26:56.044Z,989.34
2019-05-09T10:27:56.455Z,989.36
2019-05-09T10:28:56.720Z,989.38
2019-05-09T10:29:57.515Z,989.33
2019-05-09T10:30:57.826Z,989.36
2019-05-09T10:31:58.177Z,989.32
2019-05-09T10:32:58.419Z,989.31
2019-05-09T10:33:58.516Z,989.35
2019-05-09T10:34:58.739Z,989.31
2019-05-09T10:36:04.153Z,989.25
2019-05-09T10:36:59.322Z,989.29
2019-05-09T10:37:59.728Z,989.31
2019-05-09T10:39:00.008Z,989.28
2019-05-09T10:40:00.362Z,989.21
2019-05-09T10:41:01.916Z,989.29
2019-05-09T10:42:00.409Z,989.32
2019-05-09T10:43:00.921Z,989.28
2019-05-09T10:44:01.093Z,989.20
2019-05-09T10:45:01.214Z,989.24
2019-05-09T10:46:01.575Z,989.15
2019-05-09T10:47:02.359Z,989.18
2019-05-09T10:48:01.584Z,989.31
2019-05-09T10:49:02.015Z,989.28
2019-05-09T10:50:02.313Z,989.28
2019-05-09T10:51:05.467Z,989.32
2019-05-09T10:52:02.812Z,989.20
2019-05-09T10:53:02.875Z,989.23
2019-05-09T10:54:02.944Z,989.30
2019-05-09T10:55:02.845Z,989.31
2019-05-09T10:56:03.406Z,989.23
2019-05-09T10:57:03.464Z,989.26
2019-05-09T10:58:03.504Z,989.25
2019-05-09T10:59:03.579Z,989.26
2019-05-09T11:00:03.843Z,989.23
2019-05-09T11:01:03.692Z,989.24
2019-05-09T11:02:04.012Z,989.24
2019-05-09T11:03:04.555Z,989.28
2019-05-09T11:04:04.622Z,989.23
2019-05-09T11:05:04.349Z,989.24
2019-05-09T11:06:04.806Z,989.24
2019-05-09T11:07:07.891Z,989.19
2019-05-09T11:08:07.915Z,989.22
2019-05-09T11:09:08.415Z,989.13
2019-05-09T11:10:24.036Z,989.14
2019-05-09T11:11:09.299Z,989.19
2019-05-09T11:12:07.886Z,989.11
2019-05-09T11:13:07.645Z,989.06
2019-05-09T11:14:08.557Z,989.04
2019-05-09T11:15:09.193Z,989.10
2019-05-09T11:16:08.251Z,989.13
2019-05-09T11:17:17.566Z,989.05
2019-05-09T11:18:08.472Z,989.01
2019-05-09T11:19:08.988Z,989.02
2019-05-09T11:20:09.010Z,989.01
2019-05-09T11:21:09.062Z,989.04
2019-05-09T11:22:09.315Z,988.99
2019-05-09T11:23:09.581Z,989.03
2019-05-09T11:24:09.913Z,988.96
2019-05-09T11:25:10.370Z,988.92
2019-05-09T11:26:10.689Z,988.92
2019-05-09T11:27:11.029Z,988.94
2019-05-09T11:28:14.751Z,988.92
2019-05-09T11:29:11.064Z,988.94
2019-05-09T11:30:11.367Z,988.89
2019-05-09T11:31:11.819Z,988.86
2019-05-09T11:32:11.931Z,988.97
2019-05-09T11:33:12.173Z,988.98
2019-05-09T11:34:12.545Z,988.88
2019-05-09T11:35:13.071Z,988.90
2019-05-09T11:36:13.066Z,988.98
2019-05-09T11:37:13.170Z,989.02
2019-05-09T11:38:13.484Z,988.99
2019-05-09T11:39:13.988Z,989.02
2019-05-09T11:40:14.290Z,989.01
2019-05-09T11:41:15.017Z,989.03
2019-05-09T11:42:14.714Z,989.00
2019-05-09T11:43:14.977Z,988.96
2019-05-09T11:44:15.216Z,989.03
2019-05-09T11:45:17.948Z,988.99
2019-05-09T11:46:18.079Z,988.97
2019-05-09T11:47:31.470Z,988.95
2019-05-09T11:48:18.546Z,988.87
2019-05-09T11:49:18.016Z,988.95
2019-05-09T11:50:22.145Z,988.94
2019-05-09T11:51:20.503Z,988.94
2019-05-09T11:52:18.337Z,988.90
2019-05-09T11:53:17.668Z,988.88
2019-05-09T11:55:29.654Z,988.92
2019-05-09T11:56:20.886Z,988.91
2019-05-09T11:57:19.102Z,988.90
2019-05-09T11:58:18.411Z,988.85
2019-05-09T11:59:19.049Z,988.82
2019-05-09T12:00:18.791Z,988.91
2019-05-09T12:01:19.364Z,988.78
2019-05-09T12:02:19.553Z,988.81
2019-05-09T12:03:19.994Z,988.78
2019-05-09T12:04:20.497Z,988.83
2019-05-09T12:05:20.770Z,988.76
2019-05-09T12:06:21.143Z,988.76
2019-05-09T12:07:21.399Z,988.76
2019-05-09T12:08:21.814Z,988.71
2019-05-09T12:09:22.094Z,988.70
2019-05-09T12:10:22.332Z,988.72
2019-05-09T12:11:22.583Z,988.77
2019-05-09T12:12:22.825Z,988.73
2019-05-09T12:13:23.056Z,988.71
2019-05-09T12:14:23.471Z,988.70
2019-05-09T12:15:23.960Z,988.73
2019-05-09T12:16:24.192Z,988.67
2019-05-09T12:17:24.659Z,988.69
2019-05-09T12:18:24.932Z,988.73
2019-05-09T12:19:25.171Z,988.67
2019-05-09T12:20:27.573Z,988.72
2019-05-09T12:21:28.014Z,988.60
2019-05-09T12:22:28.020Z,988.49
2019-05-09T12:23:26.261Z,988.62
2019-05-09T12:24:26.654Z,988.54
2019-05-09T12:25:28.295Z,988.53
2019-05-09T12:26:29.223Z,988.51
2019-05-09T12:27:28.048Z,988.57
2019-05-09T12:28:27.458Z,988.56
2019-05-09T12:29:28.795Z,988.50
2019-05-09T12:30:28.585Z,988.51
2019-05-09T12:31:28.958Z,988.55
2019-05-09T12:32:28.791Z,988.57
2019-05-09T12:33:33.038Z,988.55
2019-05-09T12:34:29.070Z,988.53
2019-05-09T12:35:29.494Z,988.52
2019-05-09T12:36:29.963Z,988.55
2019-05-09T12:37:30.251Z,988.47
2019-05-09T12:38:30.616Z,988.50
2019-05-09T12:39:30.895Z,988.47
2019-05-09T12:40:30.881Z,988.46
2019-05-09T12:41:31.828Z,988.53